• Join FlightAware (Why Join?)
  • Login
  • US Flag 
08:15AM EDT


 

Airport Tracker/Info


-or-


 

Live Flight TrackerFlight Track Log ✈ N934DL ✈ 21-Apr-2013 ✈ KSRQ - KATL

Flight Track Log - Related Links

Times and Time Zones

All times are in EDT time to prevent confusion due to time zone crossing. See the N934DL flight status page for this flight to view local times or setup timezone preferences in your user account.

Time Position Orientation Groundspeed Altitude Reporting Facility
EDT Latitude Longitude Course Direction KTS MPH feet Rate Location/Type
02:49PM 27.3833 -82.5500 North 156 180 800  Level Tampa TRACON
02:49PM 27.3667 -82.5167 119° Southeast 193 222 1,700 1,920 Climbing Tampa TRACON
02:50PM 27.3000 -82.4833 156° South 256 295 4,100 2,760 Climbing Tampa TRACON
02:52PM 27.6903 -82.7833 North  Level FlightAware Approximate
02:52PM 27.2956 -82.5842 267° West 142 163 9,500  Level Miami Center
02:53PM 27.8064 -82.7833 North  Level FlightAware Approximate
02:53PM 27.3556 -82.6550 314° West 208 239 11,100  Level Miami Center
02:54PM 27.9225 -82.7833 North  Level FlightAware Approximate
02:54PM 27.4250 -82.7403 313° West 326 375 12,700  Level Miami Center
02:55PM 27.5208 -82.7944 333° Northwest 362 417 15,300 2,160 Climbing Miami Center
02:57PM 27.7117 -82.7872 North 434 499 18,500 1,920 Climbing Jacksonville Center
02:58PM 27.8369 -82.7869 360° North 434 499 20,600 1,860 Climbing Jacksonville Center
02:59PM 27.9664 -82.7869 360° North 442 509 22,300 1,800 Climbing Jacksonville Center
03:00PM 28.0956 -82.7867 360° North 456 525 24,300 1,980 Climbing Jacksonville Center
03:01PM 28.2375 -82.7867 360° North 456 525 26,300 1,740 Climbing Jacksonville Center
03:02PM 28.3711 -82.7864 360° North 456 525 27,900 1,740 Climbing Jacksonville Center
03:03PM 28.4900 -82.8100 350° North 456 525 29,900 1,020 Climbing Jacksonville Center
03:04PM 28.6047 -82.8525 342° North 436 502 30,000 660 Climbing Jacksonville Center
03:05PM 28.7217 -82.8808 348° North 431 496 31,300 1,200 Climbing Jacksonville Center
03:06PM 28.8406 -82.9044 350° North 431 496 32,500 1,080 Climbing Jacksonville Center
03:07PM 28.9575 -82.9281 350° North 431 496 33,500 720 Climbing Jacksonville Center
03:08PM 29.0619 -82.9828 335° Northwest 419 482 34,000 240 Climbing Jacksonville Center
03:09PM 29.1619 -83.0494 330° Northwest 409 471 34,000  Level Jacksonville Center
03:10PM 29.2642 -83.1139 331° Northwest 409 471 34,000  Level Jacksonville Center
03:11PM 29.3622 -83.1761 331° Northwest 414 476 34,000  Level Jacksonville Center
03:12PM 29.4622 -83.2383 332° Northwest 409 471 34,000  Level Jacksonville Center
03:13PM 29.5622 -83.3033 331° Northwest 409 471 34,000  Level Jacksonville Center
03:14PM 29.6644 -83.3683 331° Northwest 409 471 34,000  Level Jacksonville Center
03:15PM 29.7664 -83.4308 332° Northwest 409 471 34,000  Level Jacksonville Center
03:16PM 29.8664 -83.4939 331° Northwest 409 471 34,000  Level Jacksonville Center
03:17PM 29.9642 -83.5544 332° Northwest 409 471 34,000  Level Jacksonville Center
03:18PM 30.0619 -83.6175 331° Northwest 409 471 34,000  Level Jacksonville Center
03:19PM 30.1617 -83.6831 330° Northwest 409 471 34,000  Level Jacksonville Center
03:20PM 30.2617 -83.7464 331° Northwest 404 465 34,000  Level Jacksonville Center
03:21PM 30.3614 -83.8075 332° Northwest 404 465 34,000  Level Jacksonville Center
03:22PM 30.4611 -83.8733 330° Northwest 404 465 34,000  Level Jacksonville Center
03:23PM 30.5628 -83.9492 327° Northwest 409 471 34,000  Level Jacksonville Center
03:24PM 30.6583 -84.0058 333° Northwest 402 463 34,000  Level Jacksonville Center
03:25PM 30.7600 -84.0722 331° Northwest 402 463 34,000  Level Jacksonville Center
03:26PM 30.8597 -84.1364 331° Northwest 402 463 34,000  Level Jacksonville Center
03:27PM 30.9550 -84.2008 330° Northwest 402 463 34,000  Level Jacksonville Center
03:28PM 31.0547 -84.2675 330° Northwest 402 463 34,000  Level Jacksonville Center
03:29PM 31.1519 -84.3322 330° Northwest 402 463 34,000  Level Jacksonville Center
03:30PM 31.2953 -84.4253 331° Northwest 405 466 34,000  Level Atlanta Center
03:31PM 31.3931 -84.4914 330° Northwest 405 466 34,000  Level Atlanta Center
03:32PM 31.4931 -84.5575 331° Northwest 405 466 34,000 -180 Level Atlanta Center
03:33PM 31.5928 -84.6239 330° Northwest 405 466 33,700 -1,200 Descending Atlanta Center
03:34PM 31.6947 -84.6881 332° Northwest 411 473 31,700 -1,980 Descending Atlanta Center
03:35PM 31.8178 -84.7256 345° North 419 482 29,800 -1,980 Descending Atlanta Center
03:36PM 31.9533 -84.7586 348° North 439 505 27,800 -1,500 Descending Atlanta Center
03:37PM 32.0783 -84.7839 350° North 455 524 26,800 -1,380 Descending Atlanta Center
03:38PM 32.2056 -84.8122 349° North 455 524 25,100 -1,440 Descending Atlanta Center
03:39PM 32.3200 -84.8328 351° North 455 524 24,000 -600 Descending Atlanta Center
03:40PM 32.4411 -84.8608 349° North 449 517 24,000 -300 Level Atlanta Center
03:41PM 32.5661 -84.8892 349° North 449 517 23,500 -1,500 Descending Atlanta Center
03:42PM 32.6828 -84.9175 348° North 438 504 21,000 -2,460 Descending Atlanta Center
03:43PM 32.8014 -84.9483 348° North 433 498 18,600 -2,400 Descending Atlanta Center
03:44PM 32.9119 -84.9717 350° North 411 473 16,200 -2,400 Descending Atlanta Center
03:45PM 33.0225 -84.9953 350° North 405 466 13,800 -2,100 Descending Atlanta Center
03:46PM 33.1269 -84.9864 North 374 430 12,000 -1,500 Descending Atlanta Center
03:47PM 33.2128 -84.9253 31° Northeast 358 412 10,800 -1,020 Descending Atlanta Center
03:48PM 33.3053 -84.8639 29° Northeast 353 406 10,000 -960 Descending Atlanta Center
03:49PM 33.3833 -84.8333 18° North 290 334 8,800 -960 Descending Atlanta TRACON
03:50PM 33.4500 -84.7833 32° Northeast 255 293 8,000 -840 Descending Atlanta TRACON
03:51PM 33.5000 -84.7333 40° Northeast 206 237 7,200 -1,020 Descending Atlanta TRACON
03:52PM 33.5500 -84.7000 29° Northeast 188 216 6,000 -1,140 Descending Atlanta TRACON
03:53PM 33.5833 -84.6667 40° Northeast 174 200 5,000 -600 Descending Atlanta TRACON
03:54PM 33.6167 -84.6333 40° Northeast 164 189 4,800 -840 Descending Atlanta TRACON
03:55PM 33.6333 -84.5833 68° East 160 184 3,400 -1,440 Descending Atlanta TRACON